createdAt,value
2018-05-13T03:01:00.504Z,92.12
2018-05-13T03:02:00.654Z,92.79
2018-05-13T03:03:00.816Z,92.60
2018-05-13T03:04:00.972Z,92.41
2018-05-13T03:05:01.178Z,92.60
2018-05-13T03:06:01.308Z,92.50
2018-05-13T03:07:01.472Z,92.21
2018-05-13T03:08:01.627Z,92.50
2018-05-13T03:09:01.802Z,92.41
2018-05-13T03:10:01.973Z,92.69
2018-05-13T03:11:02.141Z,92.88
2018-05-13T03:12:02.311Z,92.60
2018-05-13T03:13:02.466Z,92.69
2018-05-13T03:14:02.641Z,92.69
2018-05-13T03:15:03.490Z,92.60
2018-05-13T03:16:03.017Z,92.79
2018-05-13T03:17:03.984Z,92.69
2018-05-13T03:18:03.387Z,93.26
2018-05-13T03:19:03.612Z,93.74
2018-05-13T03:21:35.804Z,94.12
2018-05-13T03:22:35.961Z,94.31
2018-05-13T03:23:36.119Z,94.70
2018-05-13T03:24:36.329Z,93.74
2018-05-13T03:25:36.471Z,93.60
2018-05-13T03:26:36.613Z,93.46
2018-05-13T03:27:36.774Z,93.46
2018-05-13T03:28:36.920Z,93.93
2018-05-13T03:29:37.849Z,93.98
2018-05-13T03:30:37.258Z,93.41
2018-05-13T03:31:37.431Z,93.31
2018-05-13T03:32:37.575Z,92.83
2018-05-13T03:33:37.731Z,91.93
2018-05-13T03:34:37.895Z,91.64
2018-05-13T03:35:38.892Z,91.55
2018-05-13T03:36:38.307Z,91.64
2018-05-13T03:37:38.448Z,92.12
2018-05-13T03:38:38.648Z,92.69
2018-05-13T03:39:38.827Z,93.36
2018-05-13T03:40:38.970Z,93.26
2018-05-13T03:41:39.149Z,93.07
2018-05-13T03:42:39.334Z,93.36
2018-05-13T03:43:39.457Z,92.69
2018-05-13T03:44:39.600Z,92.41
2018-05-13T03:45:39.780Z,92.69
2018-05-13T03:46:39.952Z,92.41
2018-05-13T03:47:40.130Z,92.69
2018-05-13T03:48:40.249Z,92.88
2018-05-13T03:49:40.451Z,92.60
2018-05-13T03:50:41.374Z,92.69
2018-05-13T03:51:40.780Z,92.21
2018-05-13T03:52:40.922Z,92.41
2018-05-13T03:53:41.857Z,91.83
2018-05-13T03:54:41.304Z,92.21
2018-05-13T03:55:42.360Z,92.12
2018-05-13T03:56:41.569Z,92.88
2018-05-13T03:57:41.737Z,92.69
2018-05-13T03:58:41.925Z,92.88
2018-05-13T03:59:42.051Z,92.69
2018-05-13T04:00:42.284Z,92.88
2018-05-13T04:04:47.593Z,92.41
2018-05-13T04:05:47.621Z,92.69
2018-05-13T04:06:47.789Z,92.60
2018-05-13T04:08:08.949Z,92.97
2018-05-13T04:08:48.091Z,93.36
2018-05-13T04:09:48.274Z,93.07
2018-05-13T04:11:03.093Z,93.46
2018-05-13T04:11:48.582Z,93.74
2018-05-13T04:12:48.775Z,93.17
2018-05-13T04:13:48.919Z,93.50
2018-05-13T04:14:49.583Z,93.02
2018-05-13T04:15:49.276Z,92.83
2018-05-13T04:16:49.383Z,92.74
2018-05-13T04:17:49.583Z,92.74
2018-05-13T04:18:50.589Z,93.02
2018-05-13T04:19:49.886Z,92.74
2018-05-13T04:20:50.048Z,92.74
2018-05-13T04:21:50.234Z,92.74
2018-05-13T04:22:51.107Z,92.36
2018-05-13T04:23:50.483Z,91.78
2018-05-13T04:24:50.662Z,91.59
2018-05-13T04:25:50.809Z,91.40
2018-05-13T04:26:50.963Z,91.11
2018-05-13T04:27:51.096Z,91.21
2018-05-13T04:28:52.078Z,90.92
2018-05-13T04:29:51.489Z,90.35
2018-05-13T04:30:51.694Z,91.02
2018-05-13T04:31:51.815Z,90.92
2018-05-13T04:32:52.001Z,90.83
2018-05-13T04:33:52.154Z,90.83
2018-05-13T04:34:52.337Z,91.02
2018-05-13T04:35:52.520Z,90.78
2018-05-13T04:36:52.665Z,91.16
2018-05-13T04:37:52.857Z,91.88
2018-05-13T04:38:53.000Z,92.31
2018-05-13T04:39:53.159Z,91.78
2018-05-13T04:40:53.327Z,92.16
2018-05-13T04:41:53.457Z,91.50
2018-05-13T04:42:53.659Z,91.50
2018-05-13T04:45:25.884Z,92.26
2018-05-13T04:46:26.059Z,92.07
2018-05-13T04:47:26.228Z,92.36
2018-05-13T04:48:26.389Z,91.88
2018-05-13T04:49:26.545Z,91.69
2018-05-13T04:50:26.715Z,91.64
2018-05-13T04:51:26.883Z,91.54
2018-05-13T04:52:27.024Z,91.30
2018-05-13T04:53:27.205Z,91.11
2018-05-13T04:54:27.950Z,91.21
2018-05-13T04:55:27.484Z,91.16
2018-05-13T04:56:27.634Z,91.21
2018-05-13T04:57:27.797Z,91.25
2018-05-13T04:58:27.953Z,90.83
2018-05-13T04:59:28.131Z,90.83
2018-05-13T05:00:28.302Z,91.40
2018-05-13T05:01:28.497Z,90.92
2018-05-13T05:02:28.618Z,91.30
2018-05-13T05:03:29.443Z,91.11
2018-05-13T05:04:28.997Z,91.11
2018-05-13T05:05:29.168Z,91.25
2018-05-13T05:06:29.340Z,91.25
2018-05-13T05:07:29.482Z,91.21
2018-05-13T05:08:29.657Z,91.40
2018-05-13T05:09:29.851Z,91.25
2018-05-13T05:10:30.954Z,91.16
2018-05-13T05:11:30.142Z,91.83
2018-05-13T05:12:30.295Z,91.54
2018-05-13T05:13:31.486Z,91.93
2018-05-13T05:14:30.650Z,91.83
2018-05-13T05:15:31.438Z,91.54
2018-05-13T05:16:31.048Z,92.11
2018-05-13T05:17:31.163Z,91.83
2018-05-13T05:18:31.333Z,91.78
2018-05-13T05:19:31.454Z,91.30
2018-05-13T05:20:52.667Z,91.68
2018-05-13T05:21:31.798Z,91.20
2018-05-13T05:22:31.958Z,91.39
2018-05-13T05:23:32.137Z,90.82
2018-05-13T05:24:32.260Z,90.92
2018-05-13T05:25:32.429Z,90.34
2018-05-13T05:26:32.656Z,90.30
2018-05-13T05:27:32.803Z,90.39
2018-05-13T05:28:32.929Z,89.81
2018-05-13T05:29:33.131Z,90.39
2018-05-13T05:30:33.283Z,89.34
2018-05-13T05:31:33.443Z,89.34
2018-05-13T05:32:33.588Z,89.24
2018-05-13T05:33:33.789Z,88.90
2018-05-13T05:34:34.450Z,88.13
2018-05-13T05:35:34.141Z,88.62
2018-05-13T05:36:34.274Z,88.52
2018-05-13T05:37:34.452Z,88.33
2018-05-13T05:38:34.629Z,88.33
2018-05-13T05:39:34.815Z,88.52
2018-05-13T05:40:34.934Z,88.18
2018-05-13T05:41:35.097Z,87.90
2018-05-13T05:42:35.256Z,87.61
2018-05-13T05:43:35.474Z,87.41
2018-05-13T05:44:35.632Z,87.90
2018-05-13T05:45:35.765Z,86.94
2018-05-13T05:46:35.953Z,86.88
2018-05-13T05:47:36.947Z,86.69
2018-05-13T05:48:36.250Z,86.79
2018-05-13T05:49:36.406Z,86.79
2018-05-13T05:50:36.604Z,86.45
2018-05-13T05:51:36.805Z,85.97
2018-05-13T05:52:36.954Z,85.97
2018-05-13T05:53:37.096Z,85.88
2018-05-13T05:54:37.298Z,85.21
2018-05-13T05:55:37.475Z,84.48
2018-05-13T05:56:39.499Z,84.48
2018-05-13T05:57:37.774Z,85.00
2018-05-13T05:58:37.930Z,85.00
2018-05-13T06:01:10.167Z,82.70
2018-05-13T06:02:10.339Z,82.26
2018-05-13T06:03:10.503Z,81.59
2018-05-13T06:04:10.644Z,80.63
2018-05-13T06:05:12.040Z,80.73
2018-05-13T06:06:11.089Z,81.15
2018-05-13T06:07:11.250Z,80.38
2018-05-13T06:08:11.365Z,80.57
2018-05-13T06:09:11.558Z,80.38
2018-05-13T06:10:11.727Z,80.51
2018-05-13T06:11:11.846Z,79.65
2018-05-13T06:12:12.006Z,79.94
2018-05-13T06:13:12.160Z,79.65
2018-05-13T06:14:12.342Z,78.98
2018-05-13T06:15:12.554Z,79.36
2018-05-13T06:16:13.251Z,78.88
2018-05-13T06:17:12.888Z,78.25
2018-05-13T06:18:13.059Z,78.63
2018-05-13T06:19:13.228Z,77.76
2018-05-13T06:20:13.408Z,77.38
2018-05-13T06:21:13.584Z,77.90
2018-05-13T06:22:13.719Z,77.61
2018-05-13T06:23:13.899Z,77.71
2018-05-13T06:24:14.042Z,76.84
2018-05-13T06:25:14.262Z,77.33
2018-05-13T06:26:14.400Z,75.73
2018-05-13T06:27:14.525Z,76.31
2018-05-13T06:28:14.683Z,76.21
2018-05-13T06:29:14.871Z,76.50
2018-05-13T06:30:15.069Z,75.92
2018-05-13T06:31:15.187Z,74.19
2018-05-13T06:32:15.335Z,73.90
2018-05-13T06:33:15.500Z,73.94
2018-05-13T06:34:15.715Z,73.36
2018-05-13T06:35:15.826Z,72.01
2018-05-13T06:36:16.036Z,72.11
2018-05-13T06:37:16.170Z,72.01
2018-05-13T06:38:16.383Z,72.49
2018-05-13T06:39:18.261Z,73.01
2018-05-13T06:40:16.649Z,71.85
2018-05-13T06:41:16.827Z,71.37
2018-05-13T06:42:18.757Z,70.50
2018-05-13T06:46:21.296Z,69.64
2018-05-13T06:47:21.453Z,70.98
2018-05-13T06:48:21.647Z,72.05
2018-05-13T06:49:21.869Z,71.66
2018-05-13T06:50:21.997Z,70.18
2018-05-13T06:51:22.199Z,71.18
2018-05-13T06:52:22.348Z,70.89
2018-05-13T06:53:22.499Z,70.50
2018-05-13T06:54:23.364Z,70.89
2018-05-13T06:55:22.811Z,70.31
2018-05-13T06:56:22.928Z,70.89
2018-05-13T06:57:23.159Z,71.31
2018-05-13T06:58:23.259Z,71.41
2018-05-13T06:59:23.425Z,69.96
2018-05-13T07:00:23.616Z,70.35
2018-05-13T07:01:23.857Z,70.44
2018-05-13T07:02:23.950Z,70.92
2018-05-13T07:03:24.068Z,69.57
2018-05-13T07:04:24.312Z,69.57
2018-05-13T07:05:25.377Z,70.06
2018-05-13T07:06:24.618Z,70.73
2018-05-13T07:08:57.901Z,70.06
2018-05-13T07:11:30.056Z,69.87
2018-05-13T07:12:29.223Z,69.96
2018-05-13T07:13:29.401Z,70.06
2018-05-13T07:14:29.548Z,69.90
2018-05-13T07:15:29.793Z,68.45
2018-05-13T07:16:44.585Z,70.00
2018-05-13T07:17:30.110Z,70.09
2018-05-13T07:18:30.356Z,70.00
2018-05-13T07:19:30.467Z,71.15
2018-05-13T07:20:31.568Z,69.51
2018-05-13T07:21:30.889Z,67.78
2018-05-13T07:22:31.034Z,67.40
2018-05-13T07:23:31.176Z,67.43
2018-05-13T07:24:32.069Z,67.52
2018-05-13T07:25:31.555Z,67.33
2018-05-13T07:26:31.708Z,67.33
2018-05-13T07:27:32.636Z,67.23
2018-05-13T07:28:31.992Z,67.23
2018-05-13T07:29:32.219Z,66.85
2018-05-13T07:30:32.372Z,66.97
2018-05-13T07:31:33.074Z,67.55
2018-05-13T07:32:32.671Z,67.85
2018-05-13T07:33:32.785Z,68.04
2018-05-13T07:34:32.985Z,66.97
2018-05-13T07:35:34.114Z,65.91
2018-05-13T07:36:33.400Z,66.91
2018-05-13T07:37:33.557Z,66.82
2018-05-13T07:38:33.686Z,66.33
2018-05-13T07:39:33.851Z,66.14
2018-05-13T07:40:34.003Z,66.05
2018-05-13T07:41:34.226Z,64.40
2018-05-13T07:42:34.428Z,65.85
2018-05-13T07:43:34.598Z,66.66
2018-05-13T07:44:34.748Z,66.94
2018-05-13T07:45:34.924Z,65.69
2018-05-13T07:46:35.024Z,65.69
2018-05-13T07:47:35.271Z,65.11
2018-05-13T07:48:35.360Z,64.53
2018-05-13T07:49:35.637Z,65.30
2018-05-13T07:50:35.781Z,63.66
2018-05-13T07:51:35.940Z,64.56
2018-05-13T07:52:36.638Z,64.27
2018-05-13T07:53:36.560Z,61.08
2018-05-13T07:54:36.464Z,61.18
2018-05-13T07:55:36.589Z,61.11
2018-05-13T07:56:36.791Z,61.60
2018-05-13T07:57:36.969Z,60.34
2018-05-13T07:58:37.134Z,59.89
2018-05-13T07:59:37.304Z,60.50
2018-05-13T08:00:37.465Z,60.11
2018-05-13T08:01:37.645Z,59.69
2018-05-13T08:02:37.823Z,58.55
2018-05-13T08:03:37.970Z,57.42
2018-05-13T08:04:38.181Z,55.47
2018-05-13T08:05:38.347Z,53.85
2018-05-13T08:06:38.480Z,53.49
2018-05-13T08:07:38.633Z,52.84
2018-05-13T08:15:31.900Z,49.00
2018-05-13T08:15:57.054Z,49.19
2018-05-13T08:16:57.223Z,49.34
2018-05-13T08:17:57.356Z,48.41
2018-05-13T08:18:57.553Z,48.51
2018-05-13T08:19:57.732Z,47.76
2018-05-13T08:20:57.872Z,48.15
2018-05-13T08:21:58.919Z,47.37
2018-05-13T08:22:58.224Z,47.37
2018-05-13T08:23:58.349Z,47.08
2018-05-13T08:24:59.425Z,47.86
2018-05-13T08:25:58.667Z,46.54
2018-05-13T08:26:58.846Z,46.34
2018-05-13T08:27:59.034Z,44.62
2018-05-13T08:28:59.175Z,45.25
2018-05-13T08:29:59.462Z,44.07
2018-05-13T08:30:59.535Z,45.03
2018-05-13T08:31:59.710Z,44.56
2018-05-13T08:32:59.885Z,42.22
2018-05-13T08:34:00.017Z,42.40
2018-05-13T08:35:00.199Z,42.32
2018-05-13T08:36:00.341Z,42.41
2018-05-13T08:37:00.554Z,45.22
2018-05-13T08:38:00.688Z,43.29
2018-05-13T08:39:00.877Z,44.24
2018-05-13T08:40:01.025Z,44.32
2018-05-13T08:41:01.195Z,44.93
2018-05-13T08:42:01.414Z,44.05
2018-05-13T08:43:01.543Z,43.68
2018-05-13T08:44:01.744Z,42.71
2018-05-13T08:45:01.924Z,43.59
2018-05-13T08:46:02.087Z,44.17
2018-05-13T08:47:02.188Z,43.29
2018-05-13T08:48:02.364Z,43.68
2018-05-13T08:49:02.575Z,43.68
2018-05-13T08:50:02.767Z,43.37
2018-05-13T08:51:02.914Z,44.03
2018-05-13T08:52:03.058Z,44.67
2018-05-13T08:53:03.925Z,44.67
2018-05-13T08:54:03.577Z,46.59
2018-05-13T08:55:03.617Z,45.79
2018-05-13T08:56:03.777Z,46.64
2018-05-13T08:57:03.953Z,48.49
2018-05-13T08:58:04.101Z,48.20
2018-05-13T08:59:04.298Z,47.42
2018-05-13T09:00:04.504Z,48.39
2018-05-13T09:01:04.647Z,48.20
2018-05-13T09:02:04.822Z,49.15
2018-05-13T09:03:04.940Z,48.95
2018-05-13T09:04:05.094Z,47.98
2018-05-13T09:05:05.287Z,47.11
2018-05-13T09:06:05.449Z,47.69
2018-05-13T09:07:05.624Z,48.47
2018-05-13T09:08:05.773Z,49.54
2018-05-13T09:09:05.958Z,50.21
2018-05-13T09:10:06.895Z,49.73
2018-05-13T09:11:06.923Z,49.73
2018-05-13T09:12:06.562Z,49.54
2018-05-13T09:13:06.740Z,50.02
2018-05-13T09:14:06.971Z,50.60
2018-05-13T09:15:07.114Z,49.85
2018-05-13T09:16:07.271Z,48.88
2018-05-13T09:17:07.451Z,47.61
2018-05-13T09:18:07.626Z,49.82
2018-05-13T09:19:07.776Z,47.88
2018-05-13T09:20:07.939Z,49.15
2018-05-13T09:21:08.103Z,48.95
2018-05-13T09:22:08.251Z,48.58
2018-05-13T09:23:08.416Z,48.78
2018-05-13T09:24:08.567Z,49.29
2018-05-13T09:25:08.742Z,48.54
2018-05-13T09:26:08.948Z,47.93
2018-05-13T09:27:09.104Z,48.13
2018-05-13T09:28:09.218Z,48.54
2018-05-13T09:29:09.416Z,46.40
2018-05-13T09:30:09.576Z,46.91
2018-05-13T09:31:09.766Z,46.51
2018-05-13T09:32:09.930Z,46.71
2018-05-13T09:33:10.244Z,45.94
2018-05-13T09:34:10.314Z,45.84
2018-05-13T09:35:10.466Z,45.76
2018-05-13T09:36:10.663Z,45.68
2018-05-13T09:37:10.818Z,45.98
2018-05-13T09:38:10.971Z,45.61
2018-05-13T09:39:11.129Z,43.00
2018-05-13T09:40:11.307Z,42.73
2018-05-13T09:41:11.492Z,43.82
2018-05-13T09:42:12.414Z,41.27
2018-05-13T09:43:11.838Z,41.85
2018-05-13T09:44:11.997Z,42.55
2018-05-13T09:45:12.197Z,41.11
2018-05-13T09:46:12.310Z,40.94
2018-05-13T09:47:12.575Z,38.98
2018-05-13T09:48:12.639Z,40.08
2018-05-13T09:49:12.836Z,38.73
2018-05-13T09:50:13.015Z,38.51
2018-05-13T09:51:13.186Z,37.45
2018-05-13T09:52:13.365Z,37.16
2018-05-13T09:53:13.491Z,36.69
2018-05-13T09:54:13.691Z,36.61
2018-05-13T09:55:13.845Z,36.80
2018-05-13T09:56:14.013Z,36.28
2018-05-13T09:57:14.203Z,37.71
2018-05-13T09:58:14.320Z,38.87
2018-05-13T09:59:15.467Z,38.49
2018-05-13T10:00:14.708Z,39.33
2018-05-13T10:01:14.904Z,40.01
2018-05-13T10:02:15.090Z,40.19
2018-05-13T10:03:15.969Z,39.51
2018-05-13T10:04:15.348Z,39.90
2018-05-13T10:05:15.568Z,41.38
2018-05-13T10:06:15.704Z,38.87
2018-05-13T10:07:15.934Z,39.29
2018-05-13T10:08:16.942Z,39.39
2018-05-13T10:09:16.250Z,38.32
2018-05-13T10:10:16.417Z,39.18
2018-05-13T10:11:16.550Z,39.72
2018-05-13T10:12:16.726Z,41.27
2018-05-13T10:13:16.872Z,41.17
2018-05-13T10:14:17.070Z,40.50
2018-05-13T10:15:17.249Z,40.41
2018-05-13T10:16:17.425Z,40.88
2018-05-13T10:17:17.566Z,42.68
2018-05-13T10:18:17.759Z,41.35
2018-05-13T10:19:18.029Z,39.62
2018-05-13T10:20:18.153Z,38.28
2018-05-13T10:21:18.289Z,39.23
2018-05-13T10:22:18.468Z,39.72
2018-05-13T10:23:18.656Z,39.12
2018-05-13T10:24:18.883Z,39.88
2018-05-13T10:25:18.999Z,38.79
2018-05-13T10:26:19.182Z,39.84
2018-05-13T10:27:19.425Z,40.35
2018-05-13T10:28:19.537Z,39.41
2018-05-13T10:29:19.677Z,39.69
2018-05-13T10:30:19.895Z,39.08
2018-05-13T10:31:20.029Z,39.84
2018-05-13T10:32:20.223Z,41.17
2018-05-13T10:33:20.422Z,40.58
2018-05-13T10:34:20.589Z,41.36
2018-05-13T10:35:20.754Z,41.07
2018-05-13T10:36:20.957Z,41.58
2018-05-13T10:37:21.102Z,41.97
2018-05-13T10:38:21.274Z,41.19
2018-05-13T10:39:21.442Z,40.97
2018-05-13T10:40:21.623Z,42.34
2018-05-13T10:41:21.786Z,43.88
2018-05-13T10:42:21.965Z,43.10
2018-05-13T10:43:22.112Z,42.88
2018-05-13T10:44:22.281Z,42.88
2018-05-13T10:45:22.398Z,43.74
2018-05-13T10:46:22.600Z,44.56
2018-05-13T10:47:23.465Z,42.09
2018-05-13T10:48:23.003Z,38.02
2018-05-13T10:49:23.163Z,36.79
2018-05-13T10:50:23.396Z,37.61
2018-05-13T10:51:23.512Z,35.25
2018-05-13T10:52:23.659Z,35.50
2018-05-13T10:53:23.910Z,36.94
2018-05-13T10:54:24.033Z,38.40
2018-05-13T10:55:24.211Z,38.65
2018-05-13T10:56:24.410Z,40.95
2018-05-13T10:57:24.524Z,41.50
2018-05-13T10:58:25.462Z,42.28
2018-05-13T10:59:24.915Z,43.13
2018-05-13T11:00:25.054Z,44.69
2018-05-13T11:01:25.192Z,44.86
2018-05-13T11:02:25.387Z,43.30
2018-05-13T11:03:25.520Z,43.87
2018-05-13T11:04:25.746Z,45.04
2018-05-13T11:05:25.857Z,44.84
2018-05-13T11:06:26.051Z,44.55
2018-05-13T11:07:26.230Z,45.04
2018-05-13T11:08:26.429Z,45.79
2018-05-13T11:09:26.582Z,46.08
2018-05-13T11:10:26.746Z,45.89
2018-05-13T11:11:26.900Z,45.89
2018-05-13T11:12:27.118Z,47.42
2018-05-13T11:13:27.262Z,46.15
2018-05-13T11:14:27.427Z,47.32
2018-05-13T11:15:27.594Z,48.49
2018-05-13T11:16:27.735Z,47.74
2018-05-13T11:17:27.936Z,46.81
2018-05-13T11:18:28.123Z,45.86
2018-05-13T11:19:28.265Z,45.18
2018-05-13T11:20:28.506Z,43.95
2018-05-13T11:21:28.708Z,43.02
2018-05-13T11:22:28.796Z,42.16
2018-05-13T11:23:28.995Z,41.23
2018-05-13T11:24:29.145Z,39.82
2018-05-13T11:25:29.306Z,37.41
2018-05-13T11:26:30.433Z,36.25
2018-05-13T11:27:29.623Z,34.03
2018-05-13T11:28:29.817Z,33.56
2018-05-13T11:29:29.968Z,32.71
2018-05-13T11:30:30.146Z,34.22
2018-05-13T11:31:30.308Z,31.56
2018-05-13T11:32:30.507Z,31.69
2018-05-13T11:33:30.619Z,33.62
2018-05-13T11:34:30.807Z,32.14
2018-05-13T11:35:30.961Z,31.43
2018-05-13T11:36:31.181Z,33.28
2018-05-13T11:37:31.309Z,35.02
2018-05-13T11:38:31.530Z,34.10
2018-05-13T11:39:31.697Z,36.90
2018-05-13T11:40:31.860Z,36.47
2018-05-13T11:41:31.986Z,38.02
2018-05-13T11:42:32.172Z,37.91
2018-05-13T11:43:32.386Z,39.33
2018-05-13T11:44:32.481Z,41.44
2018-05-13T11:45:33.542Z,43.10
2018-05-13T11:46:32.898Z,43.85
2018-05-13T11:47:33.031Z,42.38
2018-05-13T11:48:33.186Z,44.30
2018-05-13T11:49:33.351Z,44.67
2018-05-13T11:50:33.563Z,45.35
2018-05-13T11:51:33.697Z,46.78
2018-05-13T11:52:34.422Z,47.47
2018-05-13T11:53:34.197Z,51.43
2018-05-13T11:54:34.295Z,54.90
2018-05-13T11:55:34.946Z,57.50
2018-05-13T11:56:34.651Z,55.32
2018-05-13T11:57:34.832Z,57.85
2018-05-13T11:58:34.992Z,55.64
2018-05-13T11:59:35.152Z,52.48
2018-05-13T12:00:35.277Z,54.13
2018-05-13T12:01:35.478Z,59.07
2018-05-13T12:02:35.654Z,60.34
2018-05-13T12:03:35.862Z,57.29
2018-05-13T12:04:36.983Z,58.26
2018-05-13T12:05:36.159Z,55.66
2018-05-13T12:06:36.377Z,57.09
2018-05-13T12:07:36.475Z,50.21
2018-05-13T12:08:36.658Z,51.34
2018-05-13T12:09:36.812Z,50.63
2018-05-13T12:10:36.973Z,54.41
2018-05-13T12:11:37.217Z,53.87
2018-05-13T12:12:37.301Z,56.37
2018-05-13T12:13:37.465Z,53.23
2018-05-13T12:14:37.647Z,51.07
2018-05-13T12:15:37.841Z,54.38
2018-05-13T12:16:38.001Z,53.11
2018-05-13T12:17:38.232Z,58.78
2018-05-13T12:18:38.960Z,52.99
2018-05-13T12:19:38.477Z,53.48
2018-05-13T12:20:38.675Z,49.54
2018-05-13T12:21:38.817Z,50.26
2018-05-13T12:22:39.015Z,46.24
2018-05-13T12:23:39.222Z,46.66
2018-05-13T12:24:39.987Z,46.44
2018-05-13T12:25:39.534Z,48.10
2018-05-13T12:26:39.709Z,49.71
2018-05-13T12:27:39.844Z,49.10
2018-05-13T12:28:40.084Z,49.95
2018-05-13T12:29:40.186Z,50.60
2018-05-13T12:30:40.383Z,54.08
2018-05-13T12:31:40.533Z,55.64
2018-05-13T12:32:40.733Z,54.15
2018-05-13T12:33:40.946Z,53.67
2018-05-13T12:34:41.057Z,57.43
2018-05-13T12:35:41.257Z,56.04
2018-05-13T12:36:41.435Z,55.46
2018-05-13T12:37:41.574Z,53.16
2018-05-13T12:38:42.476Z,51.55
2018-05-13T12:39:41.861Z,49.85
2018-05-13T12:40:42.043Z,50.26
2018-05-13T12:41:42.258Z,49.19
2018-05-13T12:42:42.428Z,49.46
2018-05-13T12:43:42.528Z,51.04
2018-05-13T12:44:42.734Z,52.77
2018-05-13T12:45:42.903Z,54.43
2018-05-13T12:46:43.106Z,51.80
2018-05-13T12:47:43.257Z,52.26
2018-05-13T12:48:43.430Z,55.83
2018-05-13T12:49:43.576Z,54.08
2018-05-13T12:50:43.834Z,53.11
2018-05-13T12:51:43.918Z,55.32
2018-05-13T12:52:44.133Z,55.58
2018-05-13T12:53:44.326Z,57.69
2018-05-13T12:54:44.463Z,60.12
2018-05-13T12:55:44.632Z,58.57
2018-05-13T12:56:44.857Z,58.57
2018-05-13T12:57:44.968Z,61.38
2018-05-13T12:58:45.127Z,60.87
2018-05-13T12:59:45.278Z,60.97
2018-05-13T13:00:46.475Z,57.67
2018-05-13T13:01:45.669Z,58.73
2018-05-13T13:02:45.840Z,58.93
2018-05-13T13:03:46.041Z,60.19
2018-05-13T13:04:46.155Z,60.68
2018-05-13T13:05:46.371Z,60.84
2018-05-13T13:06:46.463Z,60.74
2018-05-13T13:07:46.793Z,59.48
2018-05-13T13:08:46.878Z,60.35
2018-05-13T13:09:47.950Z,59.58
2018-05-13T13:10:47.137Z,60.03
2018-05-13T13:11:47.356Z,60.32
2018-05-13T13:12:47.551Z,61.10
2018-05-13T13:13:47.659Z,59.84
2018-05-13T13:14:47.804Z,61.58
2018-05-13T13:15:47.995Z,60.91
2018-05-13T13:16:48.227Z,60.71
2018-05-13T13:17:48.306Z,60.94
2018-05-13T13:18:48.502Z,58.61
2018-05-13T13:19:48.679Z,58.93
2018-05-13T13:20:48.831Z,56.29
2018-05-13T13:21:49.011Z,52.97
2018-05-13T13:22:49.173Z,51.07
2018-05-13T13:23:49.325Z,48.61
2018-05-13T13:24:49.512Z,47.75
2018-05-13T13:25:49.686Z,49.07
2018-05-13T13:26:49.835Z,49.44
2018-05-13T13:27:50.025Z,49.78
2018-05-13T13:28:50.158Z,51.61
2018-05-13T13:29:50.355Z,51.31
2018-05-13T13:30:50.544Z,51.94
2018-05-13T13:31:50.741Z,52.69
2018-05-13T13:32:50.853Z,54.13
2018-05-13T13:33:51.030Z,54.03
2018-05-13T13:34:51.164Z,53.91
2018-05-13T13:35:51.362Z,55.65
2018-05-13T13:36:51.509Z,56.50
2018-05-13T13:37:51.719Z,55.89
2018-05-13T13:38:51.901Z,56.86
2018-05-13T13:39:52.956Z,57.64
2018-05-13T13:40:52.201Z,58.80
2018-05-13T13:41:52.385Z,58.51
2018-05-13T13:42:52.547Z,58.61
2018-05-13T13:43:52.667Z,57.61
2018-05-13T13:44:52.836Z,59.84
2018-05-13T13:45:52.984Z,59.71
2018-05-13T13:46:53.165Z,59.71
2018-05-13T13:47:53.368Z,62.59
2018-05-13T13:48:53.479Z,63.56
2018-05-13T13:49:53.705Z,61.79
2018-05-13T13:50:53.855Z,62.34
2018-05-13T13:51:54.018Z,65.53
2018-05-13T13:52:54.215Z,64.56
2018-05-13T13:53:54.377Z,67.08
2018-05-13T13:54:54.509Z,65.79
2018-05-13T13:55:54.691Z,65.30
2018-05-13T13:56:54.865Z,66.08
2018-05-13T13:57:55.049Z,65.11
2018-05-13T13:58:55.213Z,66.75
2018-05-13T13:59:55.328Z,69.92
2018-05-13T14:00:55.542Z,72.46
2018-05-13T14:01:55.749Z,70.98
2018-05-13T14:02:55.916Z,67.88
2018-05-13T14:03:56.181Z,69.24
2018-05-13T14:04:56.258Z,70.17
2018-05-13T14:05:56.468Z,71.81
2018-05-13T14:06:56.635Z,70.07
2018-05-13T14:07:56.798Z,67.75
2018-05-13T14:08:56.959Z,66.59
2018-05-13T14:09:57.163Z,66.98
2018-05-13T14:10:57.245Z,67.85
2018-05-13T14:11:57.469Z,68.14
2018-05-13T14:12:57.640Z,68.62
2018-05-13T14:13:57.806Z,70.56
2018-05-13T14:14:57.931Z,68.91
2018-05-13T14:15:58.135Z,68.82
2018-05-13T14:16:58.343Z,67.36
2018-05-13T14:17:58.466Z,70.07
2018-05-13T14:18:58.637Z,71.14
2018-05-13T14:19:58.814Z,71.23
2018-05-13T14:20:59.026Z,70.26
2018-05-13T14:21:59.150Z,67.27
2018-05-13T14:22:59.291Z,66.66
2018-05-13T14:23:59.505Z,70.32
2018-05-13T14:24:59.637Z,71.30
2018-05-13T14:25:59.840Z,70.14
2018-05-13T14:27:00.011Z,68.40
2018-05-13T14:28:00.221Z,68.49
2018-05-13T14:29:00.462Z,68.49
2018-05-13T14:30:00.617Z,70.52
2018-05-13T14:31:00.738Z,70.52
2018-05-13T14:32:00.883Z,70.62
2018-05-13T14:33:01.119Z,71.78
2018-05-13T14:34:01.197Z,72.45
2018-05-13T14:35:01.343Z,72.64
2018-05-13T14:36:01.601Z,71.20
2018-05-13T14:37:01.750Z,70.68
2018-05-13T14:38:01.985Z,72.32
2018-05-13T14:39:11.821Z,72.90
2018-05-13T14:40:02.280Z,73.67
2018-05-13T14:41:02.390Z,73.00
2018-05-13T14:42:02.582Z,73.77
2018-05-13T14:43:02.761Z,74.48
2018-05-13T14:44:02.887Z,75.26
2018-05-13T14:45:03.031Z,75.93
2018-05-13T14:46:03.246Z,74.96
2018-05-13T14:47:03.419Z,74.96
2018-05-13T14:48:03.577Z,75.26
2018-05-13T14:49:03.757Z,75.26
2018-05-13T14:50:03.859Z,74.96
2018-05-13T14:51:04.102Z,74.81
2018-05-13T14:52:04.214Z,75.68
2018-05-13T14:53:04.380Z,75.97
2018-05-13T14:54:04.552Z,74.62
2018-05-13T14:55:04.673Z,72.52
2018-05-13T14:56:04.886Z,74.59
2018-05-13T14:57:05.051Z,73.75
2018-05-13T14:58:05.244Z,70.18
2018-05-13T14:59:05.337Z,68.73
2018-05-13T15:00:05.500Z,71.66
2018-05-13T15:01:05.668Z,72.92
2018-05-13T15:02:05.865Z,72.47
2018-05-13T15:03:05.981Z,70.73
2018-05-13T15:04:06.180Z,70.54
2018-05-13T15:05:06.363Z,68.82
2018-05-13T15:06:06.567Z,68.34
2018-05-13T15:07:06.624Z,67.11
2018-05-13T15:08:06.875Z,65.43
2018-05-13T15:09:07.484Z,62.84
2018-05-13T15:10:08.005Z,61.15
2018-05-13T15:11:07.330Z,60.89
2018-05-13T15:12:08.028Z,60.02
2018-05-13T15:13:07.695Z,57.20
2018-05-13T15:14:07.804Z,57.71
2018-05-13T15:15:08.000Z,58.54
2018-05-13T15:16:08.190Z,54.36
2018-05-13T15:17:08.365Z,54.19
2018-05-13T15:18:08.489Z,55.85
2018-05-13T15:19:08.682Z,55.16
2018-05-13T15:20:08.856Z,51.48
2018-05-13T15:21:09.021Z,53.14
2018-05-13T15:22:09.216Z,52.09
2018-05-13T15:23:09.383Z,48.17
2018-05-13T15:24:09.570Z,49.46
2018-05-13T15:25:09.733Z,48.49
2018-05-13T15:26:10.534Z,48.58
2018-05-13T15:27:10.032Z,47.63
2018-05-13T15:28:10.300Z,48.02
2018-05-13T15:29:10.432Z,50.10
2018-05-13T15:30:10.561Z,48.14
2018-05-13T15:31:10.747Z,48.83
2018-05-13T15:32:10.930Z,48.14
2018-05-13T15:33:11.077Z,49.32
2018-05-13T15:34:11.210Z,49.88
2018-05-13T15:35:11.420Z,51.39
2018-05-13T15:36:11.576Z,50.02
2018-05-13T15:37:11.767Z,49.32
2018-05-13T15:38:11.926Z,51.14
2018-05-13T15:39:12.079Z,51.63
2018-05-13T15:40:12.222Z,54.43
2018-05-13T15:41:12.446Z,53.94
2018-05-13T15:42:12.582Z,54.72
2018-05-13T15:43:12.784Z,54.28
2018-05-13T15:44:12.936Z,54.64
2018-05-13T15:45:13.096Z,54.42
2018-05-13T15:46:13.307Z,56.14
2018-05-13T15:47:13.512Z,56.79
2018-05-13T15:48:13.645Z,57.47
2018-05-13T15:49:13.811Z,58.12
2018-05-13T15:50:14.025Z,59.28
2018-05-13T15:51:14.194Z,61.78
2018-05-13T15:52:14.371Z,61.00
2018-05-13T15:53:14.544Z,61.85
2018-05-13T15:54:14.668Z,63.01
2018-05-13T15:55:14.933Z,64.47
2018-05-13T15:56:15.075Z,64.04
2018-05-13T15:57:15.195Z,63.65
2018-05-13T15:58:15.399Z,63.82
2018-05-13T15:59:15.573Z,63.92
2018-05-13T16:00:15.750Z,65.17
2018-05-13T16:01:15.895Z,68.66
2018-05-13T16:02:15.995Z,68.56
2018-05-13T16:03:16.173Z,70.56
2018-05-13T16:04:16.377Z,70.76
2018-05-13T16:05:16.534Z,71.72
2018-05-13T16:06:16.676Z,72.30
2018-05-13T16:07:16.924Z,72.36
2018-05-13T16:08:17.027Z,72.17
2018-05-13T16:09:17.190Z,72.95
2018-05-13T16:10:17.347Z,74.30
2018-05-13T16:11:17.543Z,75.37
2018-05-13T16:12:17.806Z,76.24
2018-05-13T16:13:17.889Z,75.91
2018-05-13T16:14:18.058Z,75.33
2018-05-13T16:15:18.187Z,76.29